Time;durP1;ratioP1;P1;durP2;ratioP2;P2;SDS_P1;SDS_P2;PMS_P1;PMS_P2;Temp;Humidity;BMP_temperature;BMP_pressure;BME280_temperature;BME280_humidity;BME280_pressure;Samples;Min_cycle;Max_cycle;Signal;HPM_P1;HPM_P2
2022/01/09 00:00:00;;;;;;;22.88;2.20;;;7.00;99.90;;;;;;5033792;28;20305;-40
2022/01/09 00:02:25;;;;;;;14.95;1.25;;;7.00;99.90;;;;;;5033621;28;20032;-40
2022/01/09 00:04:51;;;;;;;18.42;2.53;;;6.90;99.90;;;;;;5028117;28;20026;-40
2022/01/09 00:07:17;;;;;;;13.52;2.13;;;6.90;99.90;;;;;;5029458;28;20478;-40
2022/01/09 00:09:44;;;;;;;17.40;2.45;;;6.90;99.90;;;;;;5033580;28;20079;-40
2022/01/09 00:12:11;;;;;;;21.13;2.20;;;6.80;99.90;;;;;;5033776;28;20470;-41
2022/01/09 00:14:36;;;;;;;19.42;2.75;;;6.80;99.90;;;;;;5030259;28;20446;-41
2022/01/09 00:17:02;;;;;;;23.65;3.15;;;6.80;99.90;;;;;;5014257;28;20056;-39
2022/01/09 00:19:28;;;;;;;20.92;2.45;;;6.90;99.90;;;;;;5031444;28;20033;-39
2022/01/09 00:21:54;;;;;;;32.13;3.78;;;6.80;99.90;;;;;;5033608;28;20477;-39
2022/01/09 00:24:19;;;;;;;20.42;3.83;;;6.90;99.90;;;;;;5033235;28;20096;-40
2022/01/09 00:26:45;;;;;;;36.88;4.78;;;6.80;99.90;;;;;;5029930;28;20033;-39
2022/01/09 00:29:11;;;;;;;31.80;3.00;;;6.90;99.90;;;;;;5020812;28;20065;-40
2022/01/09 00:31:37;;;;;;;39.38;4.20;;;6.80;99.90;;;;;;5033515;28;20496;-39
2022/01/09 00:34:03;;;;;;;42.38;3.67;;;6.90;99.90;;;;;;5031982;28;20484;-39
2022/01/09 00:36:29;;;;;;;43.08;3.28;;;6.90;99.90;;;;;;5029481;28;20060;-39
2022/01/09 00:38:55;;;;;;;27.33;4.65;;;6.90;99.90;;;;;;5031637;28;20384;-39
2022/01/09 00:41:20;;;;;;;38.92;4.82;;;6.90;99.90;;;;;;5032425;28;20033;-37
2022/01/09 00:43:46;;;;;;;43.53;4.13;;;6.90;99.90;;;;;;5029970;28;20030;-38
2022/01/09 00:46:12;;;;;;;36.30;4.53;;;6.90;99.90;;;;;;5030473;28;20044;-37
2022/01/09 00:48:37;;;;;;;25.92;3.50;;;6.90;99.90;;;;;;5017937;28;20045;-39
2022/01/09 00:51:03;;;;;;;22.75;3.45;;;6.80;99.90;;;;;;5013307;28;20018;-39
2022/01/09 00:53:28;;;;;;;37.05;3.50;;;6.90;99.90;;;;;;5013197;28;20022;-37
2022/01/09 00:55:54;;;;;;;39.13;3.95;;;6.90;99.90;;;;;;5032483;28;20030;-38
2022/01/09 00:58:20;;;;;;;30.20;3.10;;;6.90;99.90;;;;;;5032426;28;20033;-36
2022/01/09 01:00:45;;;;;;;27.52;2.72;;;6.90;99.90;;;;;;5014182;28;20470;-37
2022/01/09 01:03:11;;;;;;;32.78;4.07;;;7.00;99.90;;;;;;5020650;28;20065;-38
2022/01/09 01:05:37;;;;;;;33.75;3.33;;;7.00;99.90;;;;;;5014483;28;20393;-37
2022/01/09 01:08:03;;;;;;;34.50;4.05;;;7.00;99.90;;;;;;5011719;28;20100;-37
2022/01/09 01:10:28;;;;;;;35.83;3.83;;;7.00;99.90;;;;;;5029176;28;20036;-38
2022/01/09 01:12:54;;;;;;;21.40;3.85;;;7.00;99.90;;;;;;5029484;28;20519;-41
2022/01/09 01:15:20;;;;;;;20.48;3.05;;;7.00;99.90;;;;;;5013266;28;20120;-40
2022/01/09 01:17:46;;;;;;;27.52;4.30;;;7.00;99.90;;;;;;5024708;28;20037;-38
2022/01/09 01:20:12;;;;;;;28.08;4.05;;;6.90;99.90;;;;;;5024245;28;20029;-37
2022/01/09 01:22:39;;;;;;;32.90;3.05;;;6.90;99.90;;;;;;5028155;28;20029;-36
2022/01/09 01:25:06;;;;;;;34.23;3.60;;;6.90;99.90;;;;;;5030409;28;20033;-38
2022/01/09 01:27:32;;;;;;;16.55;2.63;;;7.00;99.90;;;;;;5025353;28;20021;-39
2022/01/09 01:29:58;;;;;;;24.63;3.17;;;7.00;99.90;;;;;;5022094;28;20038;-37
2022/01/09 01:32:24;;;;;;;19.40;2.70;;;7.00;99.90;;;;;;5028980;28;20029;-38
2022/01/09 01:34:51;;;;;;;14.48;3.30;;;7.00;99.90;;;;;;5029314;28;20057;-38
2022/01/09 01:37:17;;;;;;;22.73;2.78;;;6.90;99.90;;;;;;5030439;28;20497;-38
2022/01/09 01:39:42;;;;;;;22.05;2.78;;;6.90;99.90;;;;;;5023585;28;20112;-36
2022/01/09 01:42:08;;;;;;;8.70;2.10;;;6.90;99.90;;;;;;5013309;28;20041;-39
2022/01/09 01:44:45;;;;;;;15.93;2.85;;;6.90;99.90;;;;;;5013443;28;20525;-36
2022/01/09 01:47:12;;;;;;;28.33;3.10;;;7.00;99.90;;;;;;5018910;28;20515;-38
2022/01/09 01:49:38;;;;;;;19.42;3.28;;;6.90;99.90;;;;;;5024912;28;20049;-39
2022/01/09 01:52:04;;;;;;;25.15;2.75;;;6.90;99.90;;;;;;5036243;28;20065;-38
2022/01/09 01:54:32;;;;;;;24.25;4.07;;;6.90;99.90;;;;;;5033966;28;20029;-65
2022/01/09 01:56:58;;;;;;;19.45;2.28;;;6.90;99.90;;;;;;5036087;28;20088;-38
2022/01/09 01:59:24;;;;;;;20.02;2.05;;;6.90;99.90;;;;;;5034423;28;20072;-38
2022/01/09 02:01:49;;;;;;;24.30;3.33;;;6.90;99.90;;;;;;5032411;28;20122;-38
2022/01/09 02:04:15;;;;;;;21.23;2.33;;;7.00;99.90;;;;;;5031889;28;20065;-39
2022/01/09 02:06:41;;;;;;;19.10;2.47;;;7.00;99.90;;;;;;5026973;28;20022;-37
2022/01/09 02:09:06;;;;;;;19.05;3.00;;;7.00;99.90;;;;;;5030838;28;20552;-37
2022/01/09 02:11:33;;;;;;;35.95;3.40;;;7.00;99.90;;;;;;5019364;28;20025;-55
2022/01/09 02:13:59;;;;;;;33.75;4.32;;;7.00;99.90;;;;;;5026990;28;20547;-39
2022/01/09 02:16:26;;;;;;;30.40;3.58;;;7.00;99.90;;;;;;5016835;28;20022;-38
2022/01/09 02:18:51;;;;;;;21.67;2.75;;;6.90;99.90;;;;;;5016247;28;20033;-37
2022/01/09 02:21:17;;;;;;;18.73;3.67;;;7.00;99.90;;;;;;5016412;28;20080;-41
2022/01/09 02:23:47;;;;;;;39.53;3.92;;;7.00;99.90;;;;;;5024314;28;20092;-39
2022/01/09 02:26:17;;;;;;;27.45;2.58;;;6.90;99.90;;;;;;5027428;28;20453;-37
2022/01/09 02:28:43;;;;;;;18.13;2.95;;;7.00;99.90;;;;;;5022248;28;20354;-38
2022/01/09 02:31:09;;;;;;;15.48;3.40;;;6.90;99.90;;;;;;5027625;28;20056;-37
2022/01/09 02:33:34;;;;;;;24.02;3.20;;;6.90;99.90;;;;;;5029802;28;20025;-38
2022/01/09 02:36:00;;;;;;;21.00;2.97;;;6.90;99.90;;;;;;5030252;28;20029;-36
2022/01/09 02:38:26;;;;;;;24.23;2.72;;;6.90;99.90;;;;;;5030666;28;20041;-38
2022/01/09 02:40:53;;;;;;;33.38;3.30;;;6.90;99.90;;;;;;5021252;28;20473;-38
2022/01/09 02:43:20;;;;;;;26.23;3.17;;;6.90;99.90;;;;;;5027894;28;20621;-39
2022/01/09 02:45:49;;;;;;;21.13;2.58;;;6.90;99.90;;;;;;5031985;28;20477;-38
2022/01/09 02:48:15;;;;;;;22.42;2.35;;;6.90;99.90;;;;;;5051706;28;20024;-39
2022/01/09 02:50:51;;;;;;;21.77;2.90;;;6.90;99.90;;;;;;5046242;28;20021;-38
2022/01/09 02:53:20;;;;;;;32.10;2.97;;;6.90;99.90;;;;;;5036225;28;20036;-39
2022/01/09 02:55:47;;;;;;;15.98;2.50;;;6.90;99.90;;;;;;5039759;28;20052;-39
2022/01/09 02:58:13;;;;;;;22.55;3.50;;;6.90;99.90;;;;;;5035447;28;20030;-37
2022/01/09 03:00:45;;;;;;;21.85;3.05;;;6.70;99.90;;;;;;5035171;28;20048;-38
2022/01/09 03:03:12;;;;;;;15.70;2.30;;;6.90;99.90;;;;;;5034249;28;20026;-39
2022/01/09 03:05:38;;;;;;;14.30;2.08;;;6.80;99.90;;;;;;5038257;28;20075;-52
2022/01/09 03:08:04;;;;;;;16.98;3.08;;;6.80;99.90;;;;;;5042002;28;20049;-37
2022/01/09 03:10:29;;;;;;;22.10;2.55;;;6.90;99.90;;;;;;5048432;28;20025;-38
2022/01/09 03:12:56;;;;;;;16.70;2.78;;;6.90;99.90;;;;;;5035885;28;20396;-37
2022/01/09 03:15:23;;;;;;;16.98;2.22;;;6.90;99.90;;;;;;5043482;28;20052;-38
2022/01/09 03:17:49;;;;;;;33.97;2.85;;;6.80;99.90;;;;;;5037248;28;20504;-37
2022/01/09 03:20:17;;;;;;;16.42;2.97;;;6.80;99.90;;;;;;5035202;28;20104;-38
2022/01/09 03:22:44;;;;;;;18.48;1.85;;;6.80;99.90;;;;;;5048917;28;20024;-38
2022/01/09 03:25:10;;;;;;;23.00;2.35;;;6.80;99.90;;;;;;5037836;28;20285;-38
2022/01/09 03:27:38;;;;;;;15.75;2.00;;;6.70;99.90;;;;;;5046003;28;20028;-38
2022/01/09 03:30:05;;;;;;;25.90;2.40;;;6.70;99.90;;;;;;5038877;28;20025;-40
2022/01/09 03:32:31;;;;;;;12.25;2.05;;;6.70;99.90;;;;;;5040950;28;20024;-36
2022/01/09 03:34:57;;;;;;;15.57;2.20;;;6.70;99.90;;;;;;5045430;28;20552;-37
2022/01/09 03:37:22;;;;;;;14.77;1.88;;;6.70;99.90;;;;;;5039612;28;20026;-36
2022/01/09 03:39:48;;;;;;;17.65;2.63;;;6.70;99.90;;;;;;5044440;28;20493;-37
2022/01/09 03:42:14;;;;;;;28.10;3.13;;;6.70;99.90;;;;;;5036239;28;20025;-37
2022/01/09 03:44:39;;;;;;;14.95;2.22;;;6.60;99.90;;;;;;5053371;28;20040;-39
2022/01/09 03:47:05;;;;;;;8.32;2.03;;;6.70;99.90;;;;;;5041102;28;20036;-38
2022/01/09 03:49:30;;;;;;;11.38;1.67;;;6.60;99.90;;;;;;5034746;28;20029;-36
2022/01/09 03:51:57;;;;;;;13.02;1.83;;;6.60;99.90;;;;;;5043162;28;20032;-39
2022/01/09 03:54:23;;;;;;;13.90;2.25;;;6.60;99.90;;;;;;5035063;28;20026;-47
2022/01/09 03:56:50;;;;;;;14.27;1.85;;;6.50;99.90;;;;;;5033567;28;20121;-38
2022/01/09 03:59:16;;;;;;;24.08;2.55;;;6.50;99.90;;;;;;5033850;28;20072;-38
2022/01/09 04:01:42;;;;;;;19.75;2.58;;;6.50;99.90;;;;;;5034528;28;20033;-37
2022/01/09 04:04:08;;;;;;;10.50;1.50;;;6.50;99.90;;;;;;5035824;28;20389;-75
2022/01/09 04:06:34;;;;;;;8.23;1.85;;;6.50;99.90;;;;;;5033997;28;20042;-38
2022/01/09 04:09:07;;;;;;;16.05;2.30;;;6.50;99.90;;;;;;5032663;28;20468;-38
2022/01/09 04:11:37;;;;;;;23.58;2.28;;;6.50;99.90;;;;;;5039471;28;20104;-38
2022/01/09 04:14:03;;;;;;;21.75;3.05;;;6.50;99.90;;;;;;5036443;28;20060;-37
2022/01/09 04:16:29;;;;;;;10.73;1.52;;;6.50;99.90;;;;;;5041233;28;20075;-38
2022/01/09 04:18:54;;;;;;;17.55;2.05;;;6.50;99.90;;;;;;5024906;28;20079;-41
2022/01/09 04:21:20;;;;;;;8.60;2.85;;;6.40;99.90;;;;;;5046440;28;20443;-37
2022/01/09 04:23:46;;;;;;;14.75;2.55;;;6.40;99.90;;;;;;5043771;28;20124;-36
2022/01/09 04:26:12;;;;;;;17.42;2.22;;;6.40;99.90;;;;;;5033372;28;20508;-38
2022/01/09 04:28:37;;;;;;;13.05;1.27;;;6.40;99.90;;;;;;5039233;28;20116;-38
2022/01/09 04:31:03;;;;;;;9.25;1.48;;;6.40;99.90;;;;;;5050017;28;20108;-35
2022/01/09 04:33:29;;;;;;;12.63;1.38;;;6.40;99.90;;;;;;5032799;28;20465;-37
2022/01/09 04:35:55;;;;;;;9.73;1.35;;;6.30;99.90;;;;;;5034397;28;20104;-37
2022/01/09 04:38:20;;;;;;;16.83;2.15;;;6.30;99.90;;;;;;5051902;28;20467;-37
2022/01/09 04:40:46;;;;;;;23.05;2.33;;;6.30;99.90;;;;;;5044244;28;20221;-39
2022/01/09 04:43:13;;;;;;;9.52;1.95;;;6.30;99.90;;;;;;5037408;28;20029;-36
2022/01/09 04:45:39;;;;;;;14.45;2.50;;;6.30;99.90;;;;;;5040522;28;20502;-37
2022/01/09 04:48:07;;;;;;;12.23;1.80;;;6.30;99.90;;;;;;5032699;28;20021;-37
2022/01/09 04:50:36;;;;;;;21.73;1.88;;;6.30;99.90;;;;;;5026374;28;20018;-37
2022/01/09 04:53:07;;;;;;;18.20;1.90;;;6.30;99.90;;;;;;5023188;28;20037;-37
2022/01/09 04:55:38;;;;;;;11.10;2.13;;;6.30;99.90;;;;;;5014660;28;20076;-39
2022/01/09 04:58:04;;;;;;;12.30;2.10;;;6.40;99.90;;;;;;5023984;28;20029;-38
2022/01/09 05:00:31;;;;;;;15.13;1.70;;;6.40;99.90;;;;;;5013110;28;20030;-39
2022/01/09 05:02:56;;;;;;;13.90;3.08;;;6.40;99.90;;;;;;5025002;28;20044;-37
2022/01/09 05:05:23;;;;;;;16.90;2.08;;;6.30;99.90;;;;;;5033040;28;20088;-38
2022/01/09 05:07:48;;;;;;;13.48;2.10;;;6.30;99.90;;;;;;5024620;28;20033;-36
2022/01/09 05:10:14;;;;;;;8.75;2.50;;;6.30;99.90;;;;;;5031768;28;20091;-50
2022/01/09 05:12:40;;;;;;;14.43;1.40;;;6.30;99.90;;;;;;5024244;28;20399;-37
2022/01/09 05:15:08;;;;;;;8.73;1.90;;;6.20;99.90;;;;;;5031523;28;20489;-37
2022/01/09 05:17:34;;;;;;;9.63;1.35;;;6.20;99.90;;;;;;5020630;28;20109;-37
2022/01/09 05:20:00;;;;;;;4.80;1.38;;;6.30;99.90;;;;;;5021246;28;20521;-39
2022/01/09 05:22:27;;;;;;;13.80;1.85;;;6.30;99.90;;;;;;5047589;28;20113;-41
2022/01/09 05:24:54;;;;;;;11.23;1.88;;;6.30;99.90;;;;;;5044165;28;20030;-39
2022/01/09 05:27:23;;;;;;;4.83;1.20;;;6.30;99.90;;;;;;5040722;28;20112;-38
2022/01/09 05:29:49;;;;;;;10.43;1.58;;;6.30;99.90;;;;;;5037587;28;20279;-39
2022/01/09 05:32:14;;;;;;;13.65;1.60;;;6.30;99.90;;;;;;5046349;28;20116;-38
2022/01/09 05:34:40;;;;;;;12.65;1.70;;;6.20;99.90;;;;;;5040583;28;20226;-37
2022/01/09 05:37:06;;;;;;;11.07;2.38;;;6.20;99.90;;;;;;5052397;28;20484;-38
2022/01/09 05:39:33;;;;;;;12.45;2.10;;;6.20;99.90;;;;;;5045552;28;20022;-37
2022/01/09 05:42:00;;;;;;;19.33;2.78;;;6.10;99.90;;;;;;5046203;28;20385;-42
2022/01/09 05:44:26;;;;;;;8.75;1.20;;;6.10;99.90;;;;;;5044245;28;20025;-38
2022/01/09 05:46:51;;;;;;;15.10;1.67;;;6.10;99.90;;;;;;5046747;28;20396;-38
2022/01/09 05:49:17;;;;;;;9.18;1.60;;;6.10;99.90;;;;;;5049223;28;20025;-37
2022/01/09 05:51:43;;;;;;;4.20;1.25;;;6.00;99.90;;;;;;5042122;28;20036;-38
2022/01/09 05:54:08;;;;;;;14.50;2.42;;;5.90;99.90;;;;;;5040103;28;20033;-36
2022/01/09 05:56:35;;;;;;;12.55;1.50;;;5.90;99.90;;;;;;5040715;28;20025;-37
2022/01/09 05:59:00;;;;;;;7.78;1.30;;;5.90;99.90;;;;;;5046401;28;20039;-36
2022/01/09 06:01:26;;;;;;;8.98;1.30;;;5.90;99.90;;;;;;5038944;28;20116;-37
2022/01/09 06:03:52;;;;;;;14.80;2.13;;;5.90;99.90;;;;;;5036211;28;20082;-38
2022/01/09 06:06:17;;;;;;;8.50;1.33;;;5.80;99.90;;;;;;5050617;28;20025;-37
2022/01/09 06:08:43;;;;;;;21.15;1.67;;;5.80;99.90;;;;;;5054088;28;20044;-75
2022/01/09 06:11:09;;;;;;;14.85;1.90;;;5.80;99.90;;;;;;5035576;28;20018;-38
2022/01/09 06:13:34;;;;;;;9.65;1.83;;;5.90;99.90;;;;;;5047820;28;20025;-37
2022/01/09 06:16:00;;;;;;;10.05;1.50;;;5.90;99.90;;;;;;5040152;28;20496;-42
2022/01/09 06:18:26;;;;;;;9.68;2.25;;;5.90;99.90;;;;;;5035411;28;20024;-49
2022/01/09 06:20:51;;;;;;;13.65;2.17;;;5.90;99.90;;;;;;5043030;28;20021;-37
2022/01/09 06:23:20;;;;;;;8.52;1.58;;;5.80;99.90;;;;;;5044669;28;20037;-44
2022/01/09 06:25:49;;;;;;;16.98;2.20;;;5.80;99.90;;;;;;5047847;28;20487;-39
2022/01/09 06:28:15;;;;;;;14.38;2.53;;;5.70;99.90;;;;;;5054414;28;20071;-38
2022/01/09 06:30:41;;;;;;;19.40;1.60;;;5.70;99.90;;;;;;5041590;28;20037;-38
2022/01/09 06:33:07;;;;;;;20.33;1.83;;;5.70;99.90;;;;;;5053897;28;20044;-38
2022/01/09 06:35:33;;;;;;;8.73;1.60;;;5.70;99.90;;;;;;5049899;28;20029;-38
2022/01/09 06:37:58;;;;;;;11.00;2.83;;;5.70;99.90;;;;;;5036778;28;20381;-38
2022/01/09 06:40:25;;;;;;;6.78;1.25;;;5.70;99.90;;;;;;5035146;28;20036;-37
2022/01/09 06:42:50;;;;;;;2.88;0.90;;;5.60;99.90;;;;;;5015681;28;20484;-38
2022/01/09 06:45:16;;;;;;;13.98;1.77;;;5.60;99.90;;;;;;5052886;28;20117;-37
2022/01/09 06:47:41;;;;;;;9.38;1.40;;;5.70;99.90;;;;;;5050206;28;20105;-40
2022/01/09 06:50:10;;;;;;;12.68;1.45;;;5.60;99.90;;;;;;5034740;28;20541;-37
2022/01/09 06:52:37;;;;;;;3.58;1.63;;;5.70;99.90;;;;;;5035544;28;20021;-38
2022/01/09 06:55:03;;;;;;;5.28;1.10;;;5.60;99.90;;;;;;5035137;28;20084;-36
2022/01/09 06:57:28;;;;;;;3.85;1.17;;;5.70;99.90;;;;;;5039229;28;20522;-36
2022/01/09 06:59:54;;;;;;;6.78;1.00;;;5.70;99.90;;;;;;5036138;28;20037;-39
2022/01/09 07:02:20;;;;;;;10.32;1.45;;;5.70;99.90;;;;;;5034736;28;20468;-40
2022/01/09 07:04:45;;;;;;;5.15;1.23;;;5.60;99.90;;;;;;5034726;28;20075;-44
2022/01/09 07:07:11;;;;;;;13.73;1.48;;;5.60;99.90;;;;;;5048252;28;20029;-40
2022/01/09 07:09:36;;;;;;;7.20;0.85;;;5.50;99.90;;;;;;5045815;28;20049;-39
2022/01/09 07:12:02;;;;;;;15.73;1.35;;;5.50;99.90;;;;;;5032783;28;20393;-40
2022/01/09 07:14:28;;;;;;;10.93;2.08;;;5.50;99.90;;;;;;5049742;28;20537;-39
2022/01/09 07:16:53;;;;;;;13.82;1.50;;;5.50;99.90;;;;;;5047887;28;20111;-39
2022/01/09 07:19:19;;;;;;;7.70;1.52;;;5.40;99.90;;;;;;5053090;28;20053;-38
2022/01/09 07:21:45;;;;;;;4.63;1.10;;;5.40;99.90;;;;;;5052109;28;20033;-40
2022/01/09 07:24:10;;;;;;;6.68;1.23;;;5.40;99.90;;;;;;5046616;28;20025;-38
2022/01/09 07:26:36;;;;;;;8.65;1.05;;;5.40;99.90;;;;;;5037776;28;20097;-40
2022/01/09 07:29:02;;;;;;;7.03;1.25;;;5.40;99.90;;;;;;5034251;28;20037;-38
2022/01/09 07:31:27;;;;;;;8.35;1.35;;;5.40;99.90;;;;;;5035807;28;20493;-38
2022/01/09 07:33:53;;;;;;;2.05;0.73;;;5.40;99.90;;;;;;5041141;28;20080;-40
2022/01/09 07:36:19;;;;;;;13.48;1.50;;;5.40;99.90;;;;;;5034931;28;20036;-39
2022/01/09 07:38:45;;;;;;;5.38;1.38;;;5.40;99.90;;;;;;5039119;28;20026;-40
2022/01/09 07:41:13;;;;;;;5.95;0.90;;;5.50;99.90;;;;;;5041051;28;20056;-37
2022/01/09 07:43:39;;;;;;;8.98;1.00;;;5.50;99.90;;;;;;5046872;28;20476;-39
2022/01/09 07:46:05;;;;;;;4.55;1.10;;;5.60;99.90;;;;;;5050619;28;20476;-40
2022/01/09 07:48:31;;;;;;;7.97;1.33;;;5.70;99.90;;;;;;5039437;28;20040;-37
2022/01/09 07:50:56;;;;;;;8.75;0.90;;;5.70;99.90;;;;;;5033511;28;20027;-40
2022/01/09 07:53:23;;;;;;;11.40;1.33;;;5.70;99.90;;;;;;5038900;28;20041;-40
2022/01/09 07:55:51;;;;;;;6.75;1.00;;;5.70;99.90;;;;;;5037832;28;20025;-38
2022/01/09 07:58:18;;;;;;;3.42;1.27;;;5.70;99.90;;;;;;5053814;28;20025;-40
2022/01/09 08:00:43;;;;;;;4.72;1.27;;;5.80;99.90;;;;;;5036943;28;20116;-39
2022/01/09 08:03:13;;;;;;;7.00;1.60;;;5.80;99.90;;;;;;5034244;28;20648;-39
2022/01/09 08:05:39;;;;;;;8.98;1.88;;;5.80;99.90;;;;;;5033019;28;20099;-40
2022/01/09 08:08:06;;;;;;;13.98;1.05;;;5.80;99.90;;;;;;5042804;28;20045;-40
2022/01/09 08:10:32;;;;;;;8.35;0.80;;;5.80;99.90;;;;;;5045495;28;20082;-38
2022/01/09 08:12:59;;;;;;;12.93;1.63;;;5.70;99.90;;;;;;5037147;28;20025;-39
2022/01/09 08:15:25;;;;;;;4.10;0.68;;;5.70;99.90;;;;;;5046725;28;20021;-40
2022/01/09 08:17:53;;;;;;;7.97;1.45;;;5.60;99.90;;;;;;5036260;28;20032;-39
2022/01/09 08:20:18;;;;;;;;;;;5.60;99.90;;;;;;5034026;28;20036;-39
2022/01/09 08:22:44;;;;;;;8.57;1.02;;;5.60;99.90;;;;;;5034571;28;20357;-39
2022/01/09 08:25:11;;;;;;;8.57;1.25;;;5.50;99.90;;;;;;5034108;28;20030;-39
2022/01/09 08:27:37;;;;;;;7.80;0.90;;;5.60;99.90;;;;;;5047701;28;20496;-47
2022/01/09 08:30:06;;;;;;;8.63;1.30;;;5.60;99.90;;;;;;5045408;28;20029;-41
2022/01/09 08:32:32;;;;;;;5.30;1.42;;;5.60;99.90;;;;;;5034106;28;20029;-38
2022/01/09 08:34:57;;;;;;;8.63;1.33;;;5.70;99.90;;;;;;5033208;28;20392;-40
2022/01/09 08:37:23;;;;;;;5.97;1.25;;;5.80;99.90;;;;;;5037846;28;20076;-40
2022/01/09 08:39:49;;;;;;;16.25;1.48;;;6.00;99.90;;;;;;5040258;28;20025;-40
2022/01/09 08:42:14;;;;;;;5.82;1.20;;;6.00;99.90;;;;;;5034535;28;20112;-38
2022/01/09 08:44:40;;;;;;;13.10;1.15;;;6.20;99.90;;;;;;5038917;28;20145;-40
2022/01/09 08:47:06;;;;;;;7.05;1.35;;;6.30;99.90;;;;;;5038427;28;20476;-41
2022/01/09 08:49:32;;;;;;;4.05;1.00;;;6.30;99.90;;;;;;5051250;28;20053;-39
2022/01/09 08:51:58;;;;;;;5.07;1.27;;;6.30;99.90;;;;;;5051441;28;20025;-40
2022/01/09 08:54:24;;;;;;;11.95;2.85;;;6.30;99.90;;;;;;5032517;28;20381;-39
2022/01/09 08:56:50;;;;;;;7.05;1.15;;;6.40;99.90;;;;;;5039924;28;20360;-39
2022/01/09 08:59:16;;;;;;;9.52;1.55;;;6.50;99.90;;;;;;5047298;28;20611;-39
2022/01/09 09:01:41;;;;;;;6.20;0.90;;;6.50;99.90;;;;;;5035285;28;20079;-48
2022/01/09 09:04:09;;;;;;;8.32;1.42;;;6.60;99.90;;;;;;5038595;28;20017;-41
2022/01/09 09:06:34;;;;;;;12.40;1.35;;;6.60;99.90;;;;;;5050273;28;20036;-40
2022/01/09 09:09:00;;;;;;;2.92;1.10;;;6.60;99.90;;;;;;5035937;28;20508;-41
2022/01/09 09:11:26;;;;;;;6.10;1.52;;;6.70;99.90;;;;;;5033698;28;20025;-44
2022/01/09 09:13:51;;;;;;;4.25;1.50;;;6.70;99.90;;;;;;5040023;28;20021;-39
2022/01/09 09:16:17;;;;;;;11.05;2.55;;;6.70;99.90;;;;;;5045524;28;20079;-50
2022/01/09 09:18:47;;;;;;;21.45;2.05;;;6.60;99.90;;;;;;5032562;28;20037;-47
2022/01/09 09:21:13;;;;;;;9.93;1.45;;;6.60;99.90;;;;;;5045210;28;20078;-39
2022/01/09 09:23:38;;;;;;;10.85;1.58;;;6.60;99.90;;;;;;5050906;28;20481;-39
2022/01/09 09:26:04;;;;;;;4.50;1.15;;;6.60;99.90;;;;;;5042483;28;20060;-39
2022/01/09 09:28:30;;;;;;;11.65;2.05;;;6.60;99.90;;;;;;5032710;28;20083;-38
2022/01/09 09:30:55;;;;;;;11.45;1.95;;;6.60;99.90;;;;;;5041204;28;20436;-38
2022/01/09 09:33:21;;;;;;;9.15;1.92;;;6.60;99.90;;;;;;5037731;28;20032;-38
2022/01/09 09:35:47;;;;;;;10.95;1.38;;;6.70;99.90;;;;;;5037540;28;20030;-39
2022/01/09 09:38:13;;;;;;;9.30;1.60;;;6.80;99.90;;;;;;5032558;28;20392;-39
2022/01/09 09:40:40;;;;;;;7.35;1.55;;;6.90;99.90;;;;;;5041116;28;20028;-46
2022/01/09 09:43:05;;;;;;;10.18;1.60;;;7.10;99.90;;;;;;5050276;28;20052;-40
2022/01/09 09:45:31;;;;;;;9.35;1.13;;;7.10;99.90;;;;;;5045094;28;20022;-39
2022/01/09 09:47:57;;;;;;;6.85;1.90;;;7.20;99.90;;;;;;5040880;28;20052;-40
2022/01/09 09:50:23;;;;;;;14.95;2.35;;;7.30;99.90;;;;;;5045010;28;20104;-38
2022/01/09 09:52:49;;;;;;;10.80;1.35;;;7.40;99.90;;;;;;5032499;28;20100;-41
2022/01/09 09:55:17;;;;;;;9.38;1.45;;;7.50;99.90;;;;;;5033223;28;20029;-46
2022/01/09 09:57:43;;;;;;;6.57;1.25;;;7.50;99.90;;;;;;5034990;28;20033;-65
2022/01/09 10:00:11;;;;;;;4.97;0.98;;;7.60;99.90;;;;;;5040541;28;20472;-39
2022/01/09 10:02:49;;;;;;;8.88;1.63;;;7.50;99.90;;;;;;5026329;28;20025;-38
2022/01/09 10:05:23;;;;;;;;;;;7.50;99.90;;;;;;5014099;28;20113;-39
2022/01/09 10:08:04;;;;;;;9.60;2.20;;;7.60;99.90;;;;;;5026743;28;20262;-40
2022/01/09 10:10:31;;;;;;;4.50;1.33;;;7.60;99.90;;;;;;5016563;28;20028;-40
2022/01/09 10:13:06;;;;;;;9.60;1.67;;;7.60;99.90;;;;;;5027976;28;20473;-38
2022/01/09 10:15:44;;;;;;;10.15;1.35;;;7.50;99.90;;;;;;5031659;28;20034;-61
2022/01/09 10:18:10;;;;;;;7.03;2.30;;;7.50;99.90;;;;;;5027679;28;20036;-40
2022/01/09 10:20:36;;;;;;;10.70;1.75;;;7.50;99.90;;;;;;5020660;28;20100;-40
2022/01/09 10:23:02;;;;;;;10.63;1.13;;;7.50;99.90;;;;;;5017515;28;20038;-38
2022/01/09 10:25:27;;;;;;;15.55;2.22;;;7.50;99.90;;;;;;5032056;28;20484;-39
2022/01/09 10:28:02;;;;;;;6.70;1.77;;;7.50;99.90;;;;;;5021119;28;20104;-38
2022/01/09 10:30:35;;;;;;;7.00;1.35;;;7.40;99.90;;;;;;5022369;28;20029;-42
2022/01/09 10:33:13;;;;;;;7.30;1.50;;;7.30;99.90;;;;;;5034268;28;20033;-40
2022/01/09 10:35:40;;;;;;;;;;;7.20;99.90;;;;;;5031999;28;20030;-39
2022/01/09 10:38:22;;;;;;;8.52;1.58;;;7.10;99.90;;;;;;5033549;28;19909;-39
2022/01/09 10:41:01;;;;;;;7.47;1.00;;;7.00;99.90;;;;;;5027581;28;20029;-39
2022/01/09 10:43:37;;;;;;;7.72;0.65;;;6.80;99.90;;;;;;5030098;28;20468;-39
2022/01/09 10:46:03;;;;;;;7.30;0.85;;;6.60;99.90;;;;;;5026715;28;20025;-49
2022/01/09 10:48:32;;;;;;;3.05;1.02;;;6.60;99.90;;;;;;5038675;28;20025;-41
2022/01/09 10:50:59;;;;;;;10.60;1.35;;;6.60;99.90;;;;;;5046805;28;20125;-38
2022/01/09 10:53:37;;;;;;;9.90;1.07;;;6.60;99.90;;;;;;5035104;28;20025;-39
2022/01/09 10:56:15;;;;;;;6.13;1.60;;;6.60;99.90;;;;;;5036315;28;20037;-38
2022/01/09 10:58:40;;;;;;;;;;;6.60;99.90;;;;;;5033944;28;20112;-39
2022/01/09 11:01:28;;;;;;;5.00;0.90;;;6.70;99.90;;;;;;5044738;28;19996;-38
2022/01/09 11:03:57;;;;;;;7.68;1.13;;;6.70;99.90;;;;;;5050604;28;20064;-39
2022/01/09 11:06:26;;;;;;;3.75;0.60;;;6.80;99.90;;;;;;5035662;28;20029;-40
2022/01/09 11:08:52;;;;;;;;;;;7.00;99.90;;;;;;5035324;28;20044;-38
2022/01/09 11:11:32;;;;;;;7.03;0.93;;;7.10;99.90;;;;;;5032270;28;19909;-48
2022/01/09 11:14:02;;;;;;;4.28;0.80;;;7.20;99.90;;;;;;5030064;28;20029;-72
2022/01/09 11:16:37;;;;;;;3.28;0.90;;;7.30;99.90;;;;;;5027329;28;20014;-44
2022/01/09 11:19:04;;;;;;;3.60;0.95;;;7.40;99.90;;;;;;5030529;28;20026;-53
2022/01/09 11:21:31;;;;;;;4.13;0.90;;;7.30;99.90;;;;;;5032075;28;20029;-38
2022/01/09 11:24:26;;;;;;;4.47;0.80;;;7.20;99.90;;;;;;5024147;28;20105;-38
2022/01/09 11:27:27;;;;;;;8.30;1.30;;;7.20;99.90;;;;;;5014136;28;20498;-39
2022/01/09 11:30:05;;;;;;;10.00;1.48;;;7.30;99.90;;;;;;5032371;28;20033;-39
2022/01/09 11:32:31;;;;;;;;;;;7.30;99.90;;;;;;5016174;28;20044;-38
2022/01/09 11:35:20;;;;;;;9.02;1.55;;;7.50;99.90;;;;;;5033070;28;19909;-38
2022/01/09 11:37:45;;;;;;;10.35;1.58;;;7.50;99.90;;;;;;5035113;28;20068;-58
2022/01/09 11:40:33;;;;;;;12.82;2.40;;;7.50;99.90;;;;;;5034179;28;20061;-38
2022/01/09 11:43:14;;;;;;;;;;;7.60;99.90;;;;;;5034765;28;20033;-39
2022/01/09 11:45:59;;;;;;;17.05;2.67;;;7.60;99.90;;;;;;5032509;28;19915;-39
2022/01/09 11:48:52;;;;;;;11.30;2.15;;;7.70;99.90;;;;;;5031629;28;20428;-39
2022/01/09 11:51:22;;;;;;;7.68;1.60;;;7.70;99.90;;;;;;5034208;28;20025;-41
2022/01/09 11:54:15;;;;;;;8.05;1.58;;;7.80;99.90;;;;;;5034151;28;20465;-42
2022/01/09 11:56:53;;;;;;;13.15;1.75;;;7.80;99.90;;;;;;5033204;28;20482;-42
2022/01/09 11:59:40;;;;;;;8.38;1.50;;;7.70;99.90;;;;;;5034189;28;20071;-37
2022/01/09 12:02:29;;;;;;;9.68;2.38;;;7.80;99.90;;;;;;5034827;28;20094;-39
2022/01/09 12:05:06;;;;;;;13.07;1.92;;;7.90;99.90;;;;;;5014587;28;20056;-41
2022/01/09 12:07:32;;;;;;;4.05;1.55;;;8.20;99.90;;;;;;5026372;28;20061;-43
2022/01/09 12:09:59;;;;;;;10.15;1.88;;;8.50;99.90;;;;;;5024363;28;20077;-40
2022/01/09 12:12:35;;;;;;;10.60;1.75;;;8.50;99.90;;;;;;5013932;28;20030;-59
2022/01/09 12:15:04;;;;;;;10.57;1.95;;;8.70;99.90;;;;;;5012769;28;20080;-40
2022/01/09 12:17:44;;;;;;;12.93;2.00;;;8.70;99.90;;;;;;5027114;28;20029;-49
2022/01/09 12:20:13;;;;;;;10.88;2.03;;;8.70;99.90;;;;;;5028822;28;20021;-37
2022/01/09 12:22:51;;;;;;;18.25;2.55;;;8.60;99.90;;;;;;5025702;28;20121;-39
2022/01/09 12:25:29;;;;;;;10.93;1.73;;;8.60;99.90;;;;;;5028519;28;20041;-41
2022/01/09 12:28:10;;;;;;;;;;;8.50;99.90;;;;;;5028934;28;20025;-40
2022/01/09 12:30:44;;;;;;;11.05;1.30;;;8.60;99.90;;;;;;5027422;28;19924;-38
2022/01/09 12:33:35;;;;;;;8.10;1.40;;;8.70;99.90;;;;;;5027972;28;20041;-40
2022/01/09 12:36:13;;;;;;;4.22;1.02;;;8.80;99.90;;;;;;5025198;28;20036;-41
2022/01/09 12:38:47;;;;;;;5.65;1.20;;;8.90;99.90;;;;;;5019320;28;20124;-38
2022/01/09 12:41:25;;;;;;;4.80;1.52;;;8.90;99.90;;;;;;5028231;28;20029;-43
2022/01/09 12:43:58;;;;;;;7.72;2.17;;;9.00;99.90;;;;;;5027882;28;20072;-41
2022/01/09 12:46:25;;;;;;;8.88;2.00;;;9.10;99.90;;;;;;5036031;28;20021;-36
2022/01/09 12:49:12;;;;;;;21.02;2.10;;;9.30;99.90;;;;;;5026850;28;20033;-40
2022/01/09 12:51:46;;;;;;;10.38;1.83;;;9.50;99.90;;;;;;5021292;28;20053;-39
2022/01/09 12:54:11;;;;;;;4.43;0.98;;;9.30;99.90;;;;;;5031625;28;20021;-41
2022/01/09 12:56:38;;;;;;;16.63;2.35;;;9.00;99.90;;;;;;5027458;28;20040;-40